Time;durP1;ratioP1;P1;durP2;ratioP2;P2;SDS_P1;SDS_P2;PMS_P1;PMS_P2;Temp;Humidity;BMP_temperature;BMP_pressure;BME280_temperature;BME280_humidity;BME280_pressure;Samples;Min_cycle;Max_cycle;Signal;HPM_P1;HPM_P2
2022/09/30 00:02:14;;;;;;;10.50;6.32;;;;;;;;;;5116747;27;20048;-78
2022/09/30 00:04:39;;;;;;;9.55;7.10;;;;;;;;;;5098172;27;20025;-79
2022/09/30 00:07:05;;;;;;;12.38;9.45;;;;;;;;;;5107896;27;20350;-79
2022/09/30 00:09:30;;;;;;;14.38;9.90;;;;;;;;;;5114291;27;20024;-81
2022/09/30 00:11:56;;;;;;;22.85;15.88;;;;;;;;;;5097547;27;20445;-81
2022/09/30 00:14:22;;;;;;;14.02;10.27;;;;;;;;;;5114417;27;20062;-80
2022/09/30 00:16:48;;;;;;;10.98;7.75;;;;;;;;;;5104838;27;20467;-81
2022/09/30 00:19:13;;;;;;;13.98;6.47;;;;;;;;;;5103791;27;20015;-81
2022/09/30 00:21:38;;;;;;;6.05;5.22;;;;;;;;;;5113050;27;20027;-80
2022/09/30 00:24:04;;;;;;;10.70;7.97;;;;;;;;;;5100898;27;20022;-81
2022/09/30 00:26:30;;;;;;;8.43;6.85;;;;;;;;;;5100969;27;20039;-80
2022/09/30 00:28:57;;;;;;;9.90;6.38;;;;;;;;;;5086144;27;20023;-80
2022/09/30 00:31:23;;;;;;;9.73;4.72;;;;;;;;;;5118015;27;20024;-81
2022/09/30 00:34:07;;;;;;;3.78;3.28;;;;;;;;;;5115067;27;20047;-79
2022/09/30 00:36:42;;;;;;;4.05;2.55;;;;;;;;;;5111623;27;20027;-80
2022/09/30 00:39:08;;;;;;;3.60;2.58;;;;;;;;;;5086641;27;20392;-79
2022/09/30 00:41:34;;;;;;;4.22;2.63;;;;;;;;;;5113706;27;20030;-81
2022/09/30 00:43:59;;;;;;;7.38;3.22;;;;;;;;;;5097485;27;20096;-80
2022/09/30 00:46:25;;;;;;;4.43;3.33;;;;;;;;;;5117746;27;20052;-80
2022/09/30 00:48:52;;;;;;;5.78;3.13;;;;;;;;;;5118268;27;20019;-79
2022/09/30 00:51:24;;;;;;;7.28;2.75;;;;;;;;;;5114533;27;20022;-80
2022/09/30 00:53:59;;;;;;;3.03;2.60;;;;;;;;;;5106778;27;20033;-79
2022/09/30 00:56:27;;;;;;;4.22;3.10;;;;;;;;;;5084635;27;20031;-80
2022/09/30 00:58:59;;;;;;;4.82;3.08;;;;;;;;;;5088728;27;20031;-78
2022/09/30 01:01:25;;;;;;;4.57;2.35;;;;;;;;;;5114422;27;20085;-80
2022/09/30 01:03:52;;;;;;;13.43;8.40;;;;;;;;;;5113978;27;20438;-79
2022/09/30 01:06:18;;;;;;;4.18;3.78;;;;;;;;;;5097211;27;20392;-81
2022/09/30 01:08:44;;;;;;;14.63;11.48;;;;;;;;;;5102875;27;20023;-77
2022/09/30 01:11:09;;;;;;;9.07;6.25;;;;;;;;;;5110026;27;20427;-78
2022/09/30 01:13:36;;;;;;;5.28;3.97;;;;;;;;;;5112804;27;20023;-78
2022/09/30 01:16:21;;;;;;;4.93;3.65;;;;;;;;;;5094896;27;20031;-80
2022/09/30 01:18:56;;;;;;;20.02;8.85;;;;;;;;;;5104549;27;20019;-79
2022/09/30 01:21:21;;;;;;;13.93;10.95;;;;;;;;;;5091457;27;20030;-77
2022/09/30 01:23:56;;;;;;;12.07;8.10;;;;;;;;;;5092763;27;20019;-78
2022/09/30 01:26:40;;;;;;;7.20;5.18;;;;;;;;;;5102168;27;20035;-80
2022/09/30 01:29:15;;;;;;;10.43;5.80;;;;;;;;;;5095486;27;20058;-79
2022/09/30 01:32:01;;;;;;;9.38;5.30;;;;;;;;;;5116556;27;20034;-82
2022/09/30 01:34:45;;;;;;;5.43;4.07;;;;;;;;;;5093674;27;20044;-79
2022/09/30 01:37:19;;;;;;;7.32;4.30;;;;;;;;;;5095561;27;20020;-79
2022/09/30 01:39:49;;;;;;;7.47;3.95;;;;;;;;;;5113994;27;20034;-78
2022/09/30 01:42:24;;;;;;;6.45;4.25;;;;;;;;;;5096845;27;20038;-78
2022/09/30 01:45:08;;;;;;;8.25;4.60;;;;;;;;;;5113008;27;20040;-80
2022/09/30 01:47:41;;;;;;;6.40;3.90;;;;;;;;;;5106251;27;20081;-80
2022/09/30 01:50:09;;;;;;;5.50;4.03;;;;;;;;;;5114861;27;20106;-81
2022/09/30 01:52:34;;;;;;;6.28;3.75;;;;;;;;;;5109730;27;20030;-81
2022/09/30 01:54:59;;;;;;;9.23;3.50;;;;;;;;;;5090370;27;20027;-81
2022/09/30 01:57:24;;;;;;;5.47;3.28;;;;;;;;;;5114170;27;20038;-79
2022/09/30 01:59:54;;;;;;;3.88;3.40;;;;;;;;;;5111053;27;20023;-80
2022/09/30 02:02:24;;;;;;;4.57;3.30;;;;;;;;;;5113871;27;20486;-80
2022/09/30 02:05:04;;;;;;;8.45;4.82;;;;;;;;;;5113007;27;20054;-81
2022/09/30 02:07:33;;;;;;;8.38;5.07;;;;;;;;;;5088154;27;20116;-80
2022/09/30 02:10:01;;;;;;;11.07;6.97;;;;;;;;;;5106091;27;20092;-79
2022/09/30 02:12:29;;;;;;;9.45;6.97;;;;;;;;;;5112427;27;20031;-80
2022/09/30 02:15:04;;;;;;;7.88;5.97;;;;;;;;;;5091952;27;20548;-79
2022/09/30 02:17:39;;;;;;;8.10;5.63;;;;;;;;;;5112668;27;20075;-79
2022/09/30 02:20:21;;;;;;;12.93;8.57;;;;;;;;;;5083808;27;20028;-80
2022/09/30 02:22:49;;;;;;;11.75;7.10;;;;;;;;;;5114326;27;20067;-78
2022/09/30 02:25:19;;;;;;;9.90;7.03;;;;;;;;;;5095490;27;20402;-78
2022/09/30 02:27:44;;;;;;;;;;;;;;;;;;5111555;27;20118;-78
2022/09/30 02:30:11;;;;;;;16.50;7.23;;;;;;;;;;5097155;28;20006;-78
2022/09/30 02:32:53;;;;;;;10.52;7.68;;;;;;;;;;5112076;27;20035;-78
2022/09/30 02:35:23;;;;;;;7.13;6.43;;;;;;;;;;5112184;27;20490;-79
2022/09/30 02:37:51;;;;;;;9.32;5.95;;;;;;;;;;5113345;28;20070;-80
2022/09/30 02:40:20;;;;;;;10.60;6.15;;;;;;;;;;5113168;27;20103;-79
2022/09/30 02:42:45;;;;;;;9.18;5.43;;;;;;;;;;5112348;28;20083;-79
2022/09/30 02:45:15;;;;;;;12.45;6.38;;;;;;;;;;5111845;28;20056;-80
2022/09/30 02:47:40;;;;;;;;;;;;;;;;;;5094502;28;20508;-80
2022/09/30 02:50:06;;;;;;;10.17;6.33;;;;;;;;;;5094331;28;19912;-79
2022/09/30 02:52:41;;;;;;;21.08;9.98;;;;;;;;;;5109399;28;20025;-81
2022/09/30 02:55:07;;;;;;;29.10;13.82;;;;;;;;;;5106198;28;20148;-82
2022/09/30 02:57:43;;;;;;;22.73;11.60;;;;;;;;;;5092419;28;21006;-79
2022/09/30 03:00:09;;;;;;;132.68;43.72;;;;;;;;;;5105733;28;20088;-79
2022/09/30 03:02:34;;;;;;;38.25;15.48;;;;;;;;;;5111833;28;20062;-79
2022/09/30 03:05:00;;;;;;;14.90;7.63;;;;;;;;;;5113027;28;20031;-78
2022/09/30 03:07:25;;;;;;;13.63;6.50;;;;;;;;;;5102481;28;20030;-79
2022/09/30 03:09:55;;;;;;;11.50;6.40;;;;;;;;;;5114352;28;20045;-82
2022/09/30 03:12:26;;;;;;;15.10;7.95;;;;;;;;;;5111634;28;20080;-81
2022/09/30 03:14:51;;;;;;;14.98;7.47;;;;;;;;;;5109439;28;20031;-81
2022/09/30 03:17:17;;;;;;;16.52;8.02;;;;;;;;;;5091250;28;20024;-80
2022/09/30 03:19:45;;;;;;;9.55;5.75;;;;;;;;;;5112875;28;20038;-80
2022/09/30 03:22:29;;;;;;;37.53;17.00;;;;;;;;;;5111812;28;20039;-78
2022/09/30 03:25:08;;;;;;;30.70;14.20;;;;;;;;;;5111602;28;20046;-79
2022/09/30 03:27:51;;;;;;;22.70;12.47;;;;;;;;;;5117927;28;20030;-80
2022/09/30 03:30:25;;;;;;;35.72;17.95;;;;;;;;;;5104588;28;20027;-81
2022/09/30 03:33:11;;;;;;;36.03;18.10;;;;;;;;;;5114464;27;20777;-79
2022/09/30 03:35:47;;;;;;;30.02;14.50;;;;;;;;;;5117188;27;20453;-79
2022/09/30 03:38:31;;;;;;;23.15;13.27;;;;;;;;;;5111550;27;20019;-80
2022/09/30 03:41:15;;;;;;;19.05;10.35;;;;;;;;;;5108131;27;20441;-79
2022/09/30 03:43:40;;;;;;;14.32;8.60;;;;;;;;;;5118190;27;20426;-76
2022/09/30 03:46:14;;;;;;;14.93;7.53;;;;;;;;;;5119158;27;20100;-82
2022/09/30 03:48:40;;;;;;;24.95;14.20;;;;;;;;;;5117010;27;20379;-80
2022/09/30 03:51:06;;;;;;;21.92;12.93;;;;;;;;;;5118075;27;20027;-79
2022/09/30 03:53:37;;;;;;;15.02;9.82;;;;;;;;;;5116523;27;20926;-79
2022/09/30 03:56:02;;;;;;;14.32;10.38;;;;;;;;;;5099825;27;20031;-79
2022/09/30 03:58:27;;;;;;;26.65;14.40;;;;;;;;;;5118595;27;20072;-79
2022/09/30 04:00:53;;;;;;;25.90;14.50;;;;;;;;;;5104912;27;20037;-80
2022/09/30 04:03:20;;;;;;;22.08;13.35;;;;;;;;;;5102687;27;20268;-79
2022/09/30 04:05:45;;;;;;;24.38;14.27;;;;;;;;;;5095293;27;20034;-79
2022/09/30 04:08:11;;;;;;;22.83;13.85;;;;;;;;;;5090770;27;20343;-78
2022/09/30 04:10:38;;;;;;;30.95;18.13;;;;;;;;;;5102819;27;20020;-81
2022/09/30 04:13:03;;;;;;;37.65;20.15;;;;;;;;;;5089010;27;20023;-79
2022/09/30 04:15:29;;;;;;;28.92;18.33;;;;;;;;;;5102359;27;20107;-79
2022/09/30 04:17:54;;;;;;;36.20;22.15;;;;;;;;;;5085332;27;20625;-79
2022/09/30 04:20:19;;;;;;;31.05;19.20;;;;;;;;;;5105368;27;20396;-80
2022/09/30 04:22:45;;;;;;;31.17;19.77;;;;;;;;;;5111851;27;20023;-79
2022/09/30 04:25:10;;;;;;;50.70;26.33;;;;;;;;;;5116048;27;20059;-82
2022/09/30 04:27:36;;;;;;;38.15;19.63;;;;;;;;;;5107571;27;20024;-79
2022/09/30 04:30:01;;;;;;;31.85;17.25;;;;;;;;;;5111182;27;20062;-78
2022/09/30 04:32:27;;;;;;;26.13;15.27;;;;;;;;;;5094355;27;20024;-79
2022/09/30 04:34:53;;;;;;;40.63;22.60;;;;;;;;;;5113966;27;20047;-77
2022/09/30 04:37:19;;;;;;;33.00;18.48;;;;;;;;;;5111209;27;20023;-78
2022/09/30 04:39:44;;;;;;;19.83;12.73;;;;;;;;;;5102763;27;20050;-77
2022/09/30 04:42:10;;;;;;;19.45;13.60;;;;;;;;;;5107544;27;20051;-78
2022/09/30 04:44:35;;;;;;;14.30;10.18;;;;;;;;;;5100291;27;20494;-76
2022/09/30 04:47:00;;;;;;;11.80;9.25;;;;;;;;;;5099983;27;20018;-77
2022/09/30 04:49:26;;;;;;;22.70;14.55;;;;;;;;;;5101794;27;20032;-77
2022/09/30 04:51:51;;;;;;;30.65;19.45;;;;;;;;;;5113873;27;20127;-76
2022/09/30 04:54:17;;;;;;;36.63;23.92;;;;;;;;;;5103245;27;20161;-75
2022/09/30 04:56:43;;;;;;;23.13;14.88;;;;;;;;;;5101690;27;21055;-77
2022/09/30 04:59:08;;;;;;;34.50;21.35;;;;;;;;;;5104054;27;20113;-78
2022/09/30 05:01:33;;;;;;;17.30;12.43;;;;;;;;;;5099860;27;20026;-76
2022/09/30 05:03:59;;;;;;;7.93;6.68;;;;;;;;;;5100018;27;20092;-78
2022/09/30 05:06:24;;;;;;;8.82;5.63;;;;;;;;;;5101160;27;20042;-77
2022/09/30 05:08:49;;;;;;;7.85;6.80;;;;;;;;;;5098136;27;20023;-78
2022/09/30 05:11:19;;;;;;;8.82;6.30;;;;;;;;;;5102362;27;20019;-77
2022/09/30 05:13:44;;;;;;;;;;;;;;;;;;5103347;27;20033;-76
2022/09/30 05:16:10;;;;;;;8.53;4.93;;;;;;;;;;5103650;27;19915;-75
2022/09/30 05:18:36;;;;;;;4.30;3.90;;;;;;;;;;5101919;27;20032;-75
2022/09/30 05:21:02;;;;;;;5.70;4.63;;;;;;;;;;5116058;27;20026;-76
2022/09/30 05:23:29;;;;;;;5.82;4.65;;;;;;;;;;5111548;27;20023;-76
2022/09/30 05:25:54;;;;;;;8.13;4.82;;;;;;;;;;5112410;27;20027;-75
2022/09/30 05:28:20;;;;;;;9.20;4.55;;;;;;;;;;5109964;27;20052;-76
2022/09/30 05:30:45;;;;;;;7.10;4.70;;;;;;;;;;5104146;27;20096;-75
2022/09/30 05:33:11;;;;;;;6.03;4.82;;;;;;;;;;5101182;27;20027;-74
2022/09/30 05:35:38;;;;;;;7.78;5.43;;;;;;;;;;5111973;27;20035;-79
2022/09/30 05:38:04;;;;;;;7.97;5.65;;;;;;;;;;5112417;27;20019;-74
2022/09/30 05:40:29;;;;;;;4.88;4.10;;;;;;;;;;5113058;27;20019;-75
2022/09/30 05:42:55;;;;;;;5.07;4.57;;;;;;;;;;5112089;27;20059;-75
2022/09/30 05:45:21;;;;;;;7.15;5.32;;;;;;;;;;5111515;27;20051;-73
2022/09/30 05:47:50;;;;;;;10.23;8.25;;;;;;;;;;5112751;27;20047;-73
2022/09/30 05:50:15;;;;;;;25.13;17.75;;;;;;;;;;5112405;27;20027;-73
2022/09/30 05:52:40;;;;;;;22.90;16.38;;;;;;;;;;5112564;27;20106;-77
2022/09/30 05:55:06;;;;;;;17.17;12.07;;;;;;;;;;5101127;27;20023;-75
2022/09/30 05:57:31;;;;;;;15.48;10.27;;;;;;;;;;5103904;27;20458;-77
2022/09/30 05:59:57;;;;;;;14.63;12.02;;;;;;;;;;5112043;27;20344;-77
2022/09/30 06:02:22;;;;;;;15.07;11.85;;;;;;;;;;5114112;27;20096;-77
2022/09/30 06:04:49;;;;;;;11.52;10.35;;;;;;;;;;5118495;27;20043;-76
2022/09/30 06:07:15;;;;;;;10.05;8.70;;;;;;;;;;5111099;27;20029;-75
2022/09/30 06:09:40;;;;;;;9.50;7.15;;;;;;;;;;5111301;27;20019;-76
2022/09/30 06:12:05;;;;;;;8.10;6.15;;;;;;;;;;5113757;27;20155;-73
2022/09/30 06:14:31;;;;;;;8.93;6.88;;;;;;;;;;5111262;27;20030;-76
2022/09/30 06:16:59;;;;;;;8.18;7.00;;;;;;;;;;5113048;27;20035;-74
2022/09/30 06:19:26;;;;;;;11.35;8.70;;;;;;;;;;5108234;27;20027;-73
2022/09/30 06:21:52;;;;;;;11.10;8.10;;;;;;;;;;5102602;27;20085;-76
2022/09/30 06:24:17;;;;;;;8.07;6.38;;;;;;;;;;5113521;27;20405;-73
2022/09/30 06:26:42;;;;;;;7.22;5.40;;;;;;;;;;5114507;27;20070;-73
2022/09/30 06:29:08;;;;;;;9.40;4.82;;;;;;;;;;5105593;27;20379;-73
2022/09/30 06:31:33;;;;;;;6.80;5.50;;;;;;;;;;5100952;27;20097;-77
2022/09/30 06:34:00;;;;;;;6.93;5.32;;;;;;;;;;5101361;27;20106;-77
2022/09/30 06:36:28;;;;;;;4.93;4.30;;;;;;;;;;5102591;27;20031;-75
2022/09/30 06:38:54;;;;;;;5.28;3.78;;;;;;;;;;5100991;27;20051;-76
2022/09/30 06:41:19;;;;;;;4.10;3.65;;;;;;;;;;5102301;27;20402;-76
2022/09/30 06:43:45;;;;;;;7.07;6.30;;;;;;;;;;5102681;27;20023;-76
2022/09/30 06:46:11;;;;;;;5.63;4.80;;;;;;;;;;5101608;28;20058;-77
2022/09/30 06:48:36;;;;;;;8.60;6.60;;;;;;;;;;5101646;28;20095;-78
2022/09/30 06:51:02;;;;;;;6.32;5.00;;;;;;;;;;5101653;28;20788;-77
2022/09/30 06:53:28;;;;;;;6.22;3.20;;;;;;;;;;5099823;28;20038;-74
2022/09/30 06:55:54;;;;;;;6.18;4.63;;;;;;;;;;5104342;28;20035;-75
2022/09/30 06:58:20;;;;;;;6.95;3.85;;;;;;;;;;5102568;28;20446;-75
2022/09/30 07:00:45;;;;;;;7.60;4.70;;;;;;;;;;5100683;28;20015;-77
2022/09/30 07:03:20;;;;;;;9.13;5.85;;;;;;;;;;5101679;28;20131;-75
2022/09/30 07:05:52;;;;;;;12.93;5.65;;;;;;;;;;5113772;27;20027;-74
2022/09/30 07:08:18;;;;;;;5.15;3.38;;;;;;;;;;5112243;27;20084;-76
2022/09/30 07:10:45;;;;;;;4.13;3.15;;;;;;;;;;5111872;27;20019;-76
2022/09/30 07:13:11;;;;;;;3.70;3.05;;;;;;;;;;5119369;27;20203;-77
2022/09/30 07:15:36;;;;;;;8.52;3.42;;;;;;;;;;5112837;27;20110;-76
2022/09/30 07:18:01;;;;;;;5.20;2.47;;;;;;;;;;5114802;27;20312;-77
2022/09/30 07:20:27;;;;;;;5.13;4.00;;;;;;;;;;5106821;27;20023;-77
2022/09/30 07:22:52;;;;;;;11.32;6.38;;;;;;;;;;5102603;27;20066;-77
2022/09/30 07:25:18;;;;;;;8.60;5.18;;;;;;;;;;5106934;27;20031;-77
2022/09/30 07:27:44;;;;;;;6.80;4.47;;;;;;;;;;5103655;27;20146;-76
2022/09/30 07:30:09;;;;;;;4.10;3.08;;;;;;;;;;5103751;27;21226;-77
2022/09/30 07:32:35;;;;;;;9.25;7.13;;;;;;;;;;5105349;27;20549;-75
2022/09/30 07:35:00;;;;;;;10.38;7.53;;;;;;;;;;5114593;27;20030;-77
2022/09/30 07:37:26;;;;;;;10.68;8.15;;;;;;;;;;5111525;27;20154;-75
2022/09/30 07:39:51;;;;;;;6.40;5.70;;;;;;;;;;5104424;27;20354;-75
2022/09/30 07:42:20;;;;;;;8.38;6.13;;;;;;;;;;5110425;27;20176;-78
2022/09/30 07:44:46;;;;;;;7.32;5.30;;;;;;;;;;5112887;27;20497;-76
2022/09/30 07:47:14;;;;;;;10.48;8.68;;;;;;;;;;5118062;27;20114;-78
2022/09/30 07:49:39;;;;;;;9.65;8.05;;;;;;;;;;5115199;27;20024;-75
2022/09/30 07:52:05;;;;;;;9.05;8.13;;;;;;;;;;5106389;27;20410;-76
2022/09/30 07:54:31;;;;;;;10.35;5.13;;;;;;;;;;5112033;27;20030;-75
2022/09/30 07:56:57;;;;;;;5.55;3.00;;;;;;;;;;5114527;27;20101;-79
2022/09/30 07:59:22;;;;;;;6.22;4.03;;;;;;;;;;5114867;27;20107;-76
2022/09/30 08:01:48;;;;;;;10.40;3.20;;;;;;;;;;5117673;27;20399;-77
2022/09/30 08:04:14;;;;;;;5.85;3.42;;;;;;;;;;5117295;27;20114;-78
2022/09/30 08:06:44;;;;;;;11.40;3.78;;;;;;;;;;5115122;27;20030;-75
2022/09/30 08:09:09;;;;;;;7.85;2.88;;;;;;;;;;5092874;28;20413;-76
2022/09/30 08:11:35;;;;;;;4.95;2.25;;;;;;;;;;5116492;27;20114;-76
2022/09/30 08:14:01;;;;;;;2.58;1.80;;;;;;;;;;5111890;27;20413;-77
2022/09/30 08:16:26;;;;;;;1.95;1.75;;;;;;;;;;5111769;27;20122;-76
2022/09/30 08:18:55;;;;;;;7.93;5.03;;;;;;;;;;5108889;27;20431;-77
2022/09/30 08:21:20;;;;;;;4.43;2.92;;;;;;;;;;5109995;27;20117;-78
2022/09/30 08:23:46;;;;;;;7.20;3.95;;;;;;;;;;5110242;27;20118;-77
2022/09/30 08:26:11;;;;;;;6.03;3.63;;;;;;;;;;5104876;27;20047;-76
2022/09/30 08:28:37;;;;;;;3.08;2.75;;;;;;;;;;5110060;27;20034;-76
2022/09/30 08:31:10;;;;;;;4.88;4.43;;;;;;;;;;5106594;27;20023;-76
2022/09/30 08:33:36;;;;;;;22.88;14.60;;;;;;;;;;5110368;27;20441;-76
2022/09/30 08:36:12;;;;;;;15.52;11.10;;;;;;;;;;5101924;27;20035;-77
2022/09/30 08:38:37;;;;;;;7.18;3.92;;;;;;;;;;5104124;27;20019;-78
2022/09/30 08:41:21;;;;;;;10.30;4.57;;;;;;;;;;5086262;27;20091;-79
2022/09/30 08:43:56;;;;;;;4.10;2.63;;;;;;;;;;5103634;27;20027;-75
2022/09/30 08:46:41;;;;;;;11.43;8.02;;;;;;;;;;5091945;27;20113;-76
2022/09/30 08:49:25;;;;;;;8.25;6.00;;;;;;;;;;5087954;27;20035;-77
2022/09/30 08:51:52;;;;;;;13.15;6.60;;;;;;;;;;5102418;27;20090;-77
2022/09/30 08:54:19;;;;;;;12.20;8.13;;;;;;;;;;5104350;27;20024;-78
2022/09/30 08:56:45;;;;;;;12.48;4.55;;;;;;;;;;5102710;27;20038;-77
2022/09/30 08:59:20;;;;;;;11.77;4.60;;;;;;;;;;5107830;27;20016;-76
2022/09/30 09:01:47;;;;;;;7.47;3.78;;;;;;;;;;5107007;27;20106;-77
2022/09/30 09:04:12;;;;;;;7.32;2.97;;;;;;;;;;5101746;27;20033;-77
2022/09/30 09:06:38;;;;;;;9.40;3.17;;;;;;;;;;5100775;27;20040;-78
2022/09/30 09:09:21;;;;;;;4.78;4.38;;;;;;;;;;5106386;27;20046;-78
2022/09/30 09:11:59;;;;;;;17.25;4.78;;;;;;;;;;5107748;27;20045;-79
2022/09/30 09:14:33;;;;;;;4.63;2.10;;;;;;;;;;5105008;27;20019;-79
2022/09/30 09:17:17;;;;;;;7.78;2.78;;;;;;;;;;5109356;27;20030;-77
2022/09/30 09:20:09;;;;;;;16.60;4.13;;;;;;;;;;5092961;27;20342;-78
2022/09/30 09:22:36;;;;;;;9.75;4.70;;;;;;;;;;5109226;27;20134;-76
2022/09/30 09:25:02;;;;;;;5.90;3.60;;;;;;;;;;5101854;27;20374;-78
2022/09/30 09:27:40;;;;;;;11.13;2.60;;;;;;;;;;5083027;27;20023;-78
2022/09/30 09:30:06;;;;;;;7.50;2.55;;;;;;;;;;5102199;27;20088;-77
2022/09/30 09:32:32;;;;;;;4.28;1.90;;;;;;;;;;5098809;27;20023;-78
2022/09/30 09:35:00;;;;;;;2.08;1.85;;;;;;;;;;5099848;27;20046;-76
2022/09/30 09:38:23;;;;;;;3.20;2.40;;;;;;;;;;5100732;27;20084;-76
2022/09/30 09:40:25;;;;;;;8.15;2.13;;;;;;;;;;5100692;27;20279;-78
2022/09/30 09:42:50;;;;;;;10.35;2.47;;;;;;;;;;5101574;27;20465;-78
2022/09/30 09:45:19;;;;;;;3.47;2.28;;;;;;;;;;5101025;27;20051;-80
2022/09/30 09:47:49;;;;;;;5.17;2.87;;;;;;;;;;5099960;27;20519;-78
2022/09/30 09:50:18;;;;;;;7.88;4.90;;;;;;;;;;5100713;27;20090;-78
2022/09/30 09:52:54;;;;;;;8.50;5.93;;;;;;;;;;5083255;27;20077;-78
2022/09/30 09:55:21;;;;;;;18.75;13.65;;;;;;;;;;5101482;27;20394;-78
2022/09/30 09:57:46;;;;;;;15.98;12.65;;;;;;;;;;5100954;27;20034;-79
2022/09/30 10:03:23;;;;;;;16.35;8.50;;;;;;;;;;5100583;27;20176;-79
2022/09/30 10:06:08;;;;;;;11.23;8.68;;;;;;;;;;5099074;27;20474;-78
2022/09/30 10:08:35;;;;;;;7.10;3.17;;;;;;;;;;5106470;27;20023;-83
2022/09/30 10:11:05;;;;;;;4.10;2.20;;;;;;;;;;5111625;27;20023;-77
2022/09/30 10:13:39;;;;;;;6.93;2.22;;;;;;;;;;5112038;27;20034;-78
2022/09/30 10:16:04;;;;;;;4.85;2.70;;;;;;;;;;5112009;27;20062;-80
2022/09/30 10:18:34;;;;;;;4.60;1.60;;;;;;;;;;5112254;27;20081;-81
2022/09/30 10:21:20;;;;;;;16.83;2.92;;;;;;;;;;5110457;27;20066;-77
2022/09/30 10:23:45;;;;;;;3.22;2.08;;;;;;;;;;5112154;27;20039;-79
2022/09/30 10:26:13;;;;;;;4.50;2.60;;;;;;;;;;5110511;27;20041;-77
2022/09/30 10:28:52;;;;;;;6.13;2.30;;;;;;;;;;5111220;27;20046;-75
2022/09/30 10:31:20;;;;;;;3.95;1.95;;;;;;;;;;5112748;27;20093;-78
2022/09/30 10:33:47;;;;;;;4.07;1.70;;;;;;;;;;5113924;27;21139;-78
2022/09/30 10:36:14;;;;;;;9.23;2.92;;;;;;;;;;5111792;27;20031;-80
2022/09/30 10:38:58;;;;;;;9.57;3.47;;;;;;;;;;5094874;27;20342;-74
2022/09/30 10:41:25;;;;;;;11.00;4.40;;;;;;;;;;5115051;27;20042;-75
2022/09/30 10:43:52;;;;;;;6.72;4.15;;;;;;;;;;5116083;27;20076;-73
2022/09/30 10:46:22;;;;;;;4.35;2.22;;;;;;;;;;5112241;28;20105;-75
2022/09/30 10:48:48;;;;;;;2.45;1.90;;;;;;;;;;5113803;28;20031;-74
2022/09/30 10:51:19;;;;;;;2.63;1.80;;;;;;;;;;5112656;28;20038;-77
2022/09/30 10:53:45;;;;;;;3.97;1.70;;;;;;;;;;5113345;28;20434;-77
2022/09/30 10:56:10;;;;;;;2.60;1.70;;;;;;;;;;5112694;28;20028;-75
2022/09/30 10:58:38;;;;;;;2.88;2.25;;;;;;;;;;5106577;28;20147;-76
2022/09/30 11:01:10;;;;;;;2.30;1.50;;;;;;;;;;5112130;28;20080;-75
2022/09/30 11:03:54;;;;;;;2.47;1.40;;;;;;;;;;5101370;28;20023;-76
2022/09/30 11:06:21;;;;;;;4.22;1.70;;;;;;;;;;5112232;28;20118;-79
2022/09/30 11:08:56;;;;;;;3.08;1.92;;;;;;;;;;5110797;28;20020;-76
2022/09/30 11:11:28;;;;;;;3.72;2.20;;;;;;;;;;5110497;28;20441;-77
2022/09/30 11:14:02;;;;;;;4.00;2.00;;;;;;;;;;5104725;28;20121;-74
2022/09/30 11:16:46;;;;;;;5.05;1.70;;;;;;;;;;5107176;28;20438;-73
2022/09/30 11:19:18;;;;;;;3.38;1.85;;;;;;;;;;5109573;28;20027;-81
2022/09/30 11:21:52;;;;;;;5.75;2.10;;;;;;;;;;5109391;28;20362;-75
2022/09/30 11:24:18;;;;;;;3.40;2.13;;;;;;;;;;5114194;28;20023;-80
2022/09/30 11:27:06;;;;;;;3.30;1.60;;;;;;;;;;5114442;28;20091;-77
2022/09/30 11:29:34;;;;;;;3.33;1.77;;;;;;;;;;5108994;28;20122;-77
2022/09/30 11:32:00;;;;;;;2.45;2.13;;;;;;;;;;5107971;28;20040;-81
2022/09/30 11:34:36;;;;;;;8.70;3.35;;;;;;;;;;5108448;28;20023;-77
2022/09/30 11:37:07;;;;;;;4.60;2.45;;;;;;;;;;5109209;28;20312;-78
2022/09/30 11:39:32;;;;;;;2.30;2.10;;;;;;;;;;5111871;28;20019;-77
2022/09/30 11:42:05;;;;;;;5.80;2.30;;;;;;;;;;5114737;28;20042;-77
2022/09/30 11:44:35;;;;;;;2.33;2.03;;;;;;;;;;5103001;28;20488;-75
2022/09/30 11:47:12;;;;;;;4.90;2.05;;;;;;;;;;5101905;28;20046;-76
2022/09/30 11:49:56;;;;;;;4.07;2.80;;;;;;;;;;5103291;28;20024;-74
2022/09/30 11:52:30;;;;;;;8.57;2.40;;;;;;;;;;5103681;27;20024;-76
2022/09/30 11:55:01;;;;;;;4.88;3.05;;;;;;;;;;5114534;27;20457;-75
2022/09/30 11:57:46;;;;;;;10.15;4.40;;;;;;;;;;5115746;27;20173;-76
2022/09/30 12:00:16;;;;;;;5.82;3.95;;;;;;;;;;5107018;27;20050;-77
2022/09/30 12:02:42;;;;;;;4.32;2.38;;;;;;;;;;5107318;27;20039;-80
2022/09/30 12:05:10;;;;;;;4.00;2.95;;;;;;;;;;5113238;27;20031;-79
2022/09/30 12:07:47;;;;;;;5.40;3.70;;;;;;;;;;5103993;27;20414;-76
2022/09/30 12:10:20;;;;;;;10.85;2.72;;;;;;;;;;5106216;27;20027;-75
2022/09/30 12:12:48;;;;;;;4.55;2.67;;;;;;;;;;5108770;27;20019;-76
2022/09/30 12:15:15;;;;;;;8.27;2.50;;;;;;;;;;5109417;27;20027;-76
2022/09/30 12:17:40;;;;;;;8.38;2.63;;;;;;;;;;5116649;27;20031;-76
2022/09/30 12:20:13;;;;;;;4.85;2.75;;;;;;;;;;5115523;27;20120;-74
2022/09/30 12:22:40;;;;;;;4.03;2.83;;;;;;;;;;5097377;27;20390;-78
2022/09/30 12:25:24;;;;;;;3.95;1.90;;;;;;;;;;5113662;27;20623;-75
2022/09/30 12:31:14;;;;;;;3.40;1.80;;;;;;;;;;5087443;27;20075;-78
2022/09/30 12:33:52;;;;;;;2.72;1.90;;;;;;;;;;5110863;27;20066;-77
2022/09/30 12:36:23;;;;;;;3.83;1.88;;;;;;;;;;5107161;27;20028;-77
2022/09/30 12:39:10;;;;;;;3.38;1.88;;;;;;;;;;5109022;27;20035;-74
2022/09/30 12:41:44;;;;;;;5.18;1.90;;;;;;;;;;5112566;27;20023;-75
2022/09/30 12:44:28;;;;;;;4.80;1.67;;;;;;;;;;5113456;27;20343;-81
2022/09/30 12:47:00;;;;;;;3.28;2.13;;;;;;;;;;5117299;27;20040;-80
2022/09/30 12:49:26;;;;;;;3.25;2.00;;;;;;;;;;5116188;27;20528;-75
2022/09/30 12:51:55;;;;;;;3.00;1.80;;;;;;;;;;5093529;27;20033;-77
2022/09/30 12:54:23;;;;;;;3.28;2.72;;;;;;;;;;5115414;27;20031;-75
2022/09/30 12:56:53;;;;;;;2.95;2.30;;;;;;;;;;5116832;27;20046;-79
2022/09/30 12:59:23;;;;;;;4.88;3.00;;;;;;;;;;5095021;27;20031;-78
2022/09/30 13:01:48;;;;;;;3.40;2.20;;;;;;;;;;5109148;27;20058;-75
2022/09/30 13:04:15;;;;;;;5.60;2.90;;;;;;;;;;5080944;27;20051;-75
2022/09/30 13:06:43;;;;;;;4.63;3.10;;;;;;;;;;5109164;27;20032;-76
2022/09/30 13:09:15;;;;;;;3.80;2.00;;;;;;;;;;5109946;27;20439;-76
2022/09/30 13:11:43;;;;;;;2.85;2.33;;;;;;;;;;5109850;27;20022;-78
2022/09/30 13:14:15;;;;;;;3.83;2.83;;;;;;;;;;5106919;27;20042;-76
2022/09/30 13:17:02;;;;;;;5.68;2.92;;;;;;;;;;5109191;27;20035;-76
2022/09/30 13:19:35;;;;;;;22.98;15.32;;;;;;;;;;5114993;27;20023;-76
2022/09/30 13:22:28;;;;;;;5.78;3.05;;;;;;;;;;5112804;27;20428;-79
2022/09/30 13:24:59;;;;;;;2.45;1.85;;;;;;;;;;5110475;27;20340;-75
2022/09/30 13:27:38;;;;;;;3.33;2.83;;;;;;;;;;5106655;27;20052;-75
2022/09/30 13:30:16;;;;;;;3.83;1.88;;;;;;;;;;5114911;27;20055;-76
2022/09/30 13:32:47;;;;;;;8.10;3.10;;;;;;;;;;5108950;27;20106;-73
2022/09/30 13:35:31;;;;;;;5.93;2.10;;;;;;;;;;5118186;27;20461;-75
2022/09/30 13:38:23;;;;;;;4.20;1.45;;;;;;;;;;5093217;27;20027;-75
2022/09/30 13:41:02;;;;;;;3.45;1.83;;;;;;;;;;5101297;27;20482;-77
2022/09/30 13:43:30;;;;;;;4.18;2.47;;;;;;;;;;5097262;27;20054;-73
2022/09/30 13:45:57;;;;;;;3.53;1.98;;;;;;;;;;5094598;27;20050;-75
2022/09/30 13:48:31;;;;;;;7.22;4.82;;;;;;;;;;5097638;27;20039;-77
2022/09/30 13:50:58;;;;;;;4.57;2.42;;;;;;;;;;5107806;27;20076;-78
2022/09/30 13:53:33;;;;;;;4.53;1.67;;;;;;;;;;5110952;27;20043;-77
2022/09/30 13:56:03;;;;;;;3.75;1.73;;;;;;;;;;5111664;27;20027;-78
2022/09/30 13:58:47;;;;;;;3.65;1.30;;;;;;;;;;5111613;27;20041;-76
2022/09/30 14:01:40;;;;;;;3.33;1.60;;;;;;;;;;5110727;27;20032;-76
2022/09/30 14:04:22;;;;;;;6.20;4.63;;;;;;;;;;5108381;27;20027;-77
2022/09/30 14:07:06;;;;;;;3.78;2.03;;;;;;;;;;5111970;27;20034;-76
2022/09/30 14:09:37;;;;;;;10.93;2.28;;;;;;;;;;5108708;27;20024;-76
2022/09/30 14:12:12;;;;;;;3.88;2.00;;;;;;;;;;5104900;27;20048;-78
2022/09/30 14:14:49;;;;;;;2.67;1.52;;;;;;;;;;5103873;27;20073;-78
2022/09/30 14:17:18;;;;;;;9.40;4.90;;;;;;;;;;5112868;27;21195;-77
2022/09/30 14:19:46;;;;;;;7.90;5.70;;;;;;;;;;5110295;27;20028;-76
2022/09/30 14:22:13;;;;;;;20.38;15.00;;;;;;;;;;5113551;27;20027;-78
2022/09/30 14:24:41;;;;;;;10.55;7.60;;;;;;;;;;5110071;27;20031;-78
2022/09/30 14:27:06;;;;;;;4.88;2.33;;;;;;;;;;5099758;27;20172;-78
2022/09/30 14:29:44;;;;;;;2.38;1.50;;;;;;;;;;5096828;27;20107;-78
2022/09/30 14:32:32;;;;;;;2.75;1.58;;;;;;;;;;5093513;27;20082;-77
2022/09/30 14:34:58;;;;;;;1.98;1.40;;;;;;;;;;5097497;27;20391;-80
2022/09/30 14:37:28;;;;;;;3.13;1.27;;;;;;;;;;5113926;27;20038;-76
2022/09/30 14:39:53;;;;;;;2.22;1.60;;;;;;;;;;5092870;28;20446;-76
2022/09/30 14:42:23;;;;;;;4.03;1.50;;;;;;;;;;5110644;27;20110;-78
2022/09/30 14:44:49;;;;;;;2.53;1.60;;;;;;;;;;5103445;27;20125;-77
2022/09/30 14:47:16;;;;;;;5.28;1.58;;;;;;;;;;5111421;27;20115;-78
2022/09/30 14:49:41;;;;;;;4.20;2.60;;;;;;;;;;5101932;28;20083;-74
2022/09/30 14:52:26;;;;;;;2.65;1.73;;;;;;;;;;5108077;28;20028;-75
2022/09/30 14:54:52;;;;;;;1.92;1.52;;;;;;;;;;5111675;28;20027;-79
2022/09/30 14:57:17;;;;;;;3.63;1.70;;;;;;;;;;5106750;28;20098;-76
2022/09/30 14:59:43;;;;;;;3.92;1.42;;;;;;;;;;5104912;28;20042;-79
2022/09/30 15:02:19;;;;;;;1.85;1.45;;;;;;;;;;5109891;28;20038;-76